Time;durP1;ratioP1;P1;durP2;ratioP2;P2;SDS_P1;SDS_P2;PMS_P1;PMS_P2;Temp;Humidity;BMP_temperature;BMP_pressure;BME280_temperature;BME280_humidity;BME280_pressure;Samples;Min_cycle;Max_cycle;Signal;HPM_P1;HPM_P2
2021/10/25 00:02:24;;;;;;;;;;;;;;;7.93;100.00;101831.03;5070426;29;20359;-69
2021/10/25 00:04:55;;;;;;;;;;;;;;;7.92;100.00;101830.19;5073410;29;19931;-70
2021/10/25 00:07:27;;;;;;;;;;;;;;;7.89;100.00;101826.91;5071902;29;19991;-70
2021/10/25 00:09:58;;;;;;;;;;;;;;;7.83;100.00;101825.50;5072804;29;20389;-69
2021/10/25 00:12:29;;;;;;;;;;;;;;;7.81;100.00;101819.53;5072308;29;20010;-70
2021/10/25 00:15:01;;;;;;;;;;;;;;;7.79;100.00;101817.00;5070327;29;20416;-70
2021/10/25 00:17:32;;;;;;;;;;;;;;;7.80;100.00;101820.44;5071193;29;19916;-69
2021/10/25 00:20:05;;;;;;;;;;;;;;;7.77;100.00;101824.09;5073133;29;19926;-70
2021/10/25 00:22:36;;;;;;;;;;;;;;;7.73;100.00;101819.97;5071049;29;20010;-70
2021/10/25 00:25:07;;;;;;;;;;;;;;;7.72;100.00;101820.88;5071217;29;20014;-70
2021/10/25 00:27:39;;;;;;;;;;;;;;;7.73;100.00;101829.56;5071812;29;19919;-69
2021/10/25 00:30:10;;;;;;;;;;;;;;;7.73;100.00;101821.75;5070337;29;19916;-69
2021/10/25 00:32:41;;;;;;;;;;;;;;;7.70;100.00;101819.31;5071731;29;19930;-70
2021/10/25 00:35:12;;;;;;;;;;;;;;;7.69;100.00;101817.59;5073609;29;19915;-69
2021/10/25 00:37:44;;;;;;;;;;;;;;;7.65;100.00;101813.50;5071032;29;19923;-69
2021/10/25 00:40:15;;;;;;;;;;;;;;;7.64;100.00;101812.66;5071962;29;19920;-71
2021/10/25 00:42:46;;;;;;;;;;;;;;;7.63;100.00;101813.59;5070633;29;20398;-69
2021/10/25 00:45:17;;;;;;;;;;;;;;;7.63;100.00;101808.38;5072266;29;20011;-70
2021/10/25 00:47:49;;;;;;;;;;;;;;;7.62;100.00;101808.47;5071730;29;20359;-69
2021/10/25 00:50:20;;;;;;;;;;;;;;;7.61;100.00;101806.78;5069525;29;19920;-70
2021/10/25 00:52:51;;;;;;;;;;;;;;;7.59;100.00;101801.66;5072556;29;20290;-69
2021/10/25 00:55:23;;;;;;;;;;;;;;;7.61;100.00;101809.38;5071592;29;19926;-69
2021/10/25 00:57:55;;;;;;;;;;;;;;;7.61;100.00;101804.16;5070766;29;19920;-70
2021/10/25 01:00:26;;;;;;;;;;;;;;;7.62;100.00;101796.28;5071376;29;19931;-69
2021/10/25 01:02:58;;;;;;;;;;;;;;;7.66;100.00;101807.38;5072993;29;19915;-69
2021/10/25 01:05:30;;;;;;;;;;;;;;;7.66;100.00;101813.44;5071660;29;19923;-69
2021/10/25 01:08:02;;;;;;;;;;;;;;;7.67;100.00;101802.06;5070169;29;20008;-69
2021/10/25 01:10:34;;;;;;;;;;;;;;;7.67;100.00;101799.44;5071441;29;19923;-69
2021/10/25 01:13:05;;;;;;;;;;;;;;;7.67;100.00;101803.81;5071963;29;19916;-69
2021/10/25 01:15:36;;;;;;;;;;;;;;;7.67;100.00;101804.66;5070215;29;20381;-69
2021/10/25 01:18:08;;;;;;;;;;;;;;;7.64;100.00;101806.59;5072505;29;19943;-69
2021/10/25 01:20:40;;;;;;;;;;;;;;;7.66;100.00;101797.78;5070631;29;19916;-69
2021/10/25 01:23:11;;;;;;;;;;;;;;;7.68;100.00;101805.50;5070608;29;19926;-69
2021/10/25 01:25:42;;;;;;;;;;;;;;;7.70;100.00;101809.72;5070277;29;20270;-69
2021/10/25 01:28:13;;;;;;;;;;;;;;;7.73;100.00;101800.88;5072193;29;19920;-69
2021/10/25 01:30:45;;;;;;;;;;;;;;;7.73;100.00;101800.88;5069826;29;20457;-69
2021/10/25 01:33:16;;;;;;;;;;;;;;;7.74;100.00;101799.94;5071859;29;19923;-69
2021/10/25 01:35:47;;;;;;;;;;;;;;;7.78;100.00;101801.44;5070173;29;20369;-70
2021/10/25 01:38:18;;;;;;;;;;;;;;;7.78;100.00;101797.06;5069195;29;19959;-69
2021/10/25 01:40:50;;;;;;;;;;;;;;;7.79;100.00;101800.50;5071646;29;19935;-69
2021/10/25 01:43:21;;;;;;;;;;;;;;;7.79;100.00;101797.91;5071602;29;20001;-69
2021/10/25 01:45:53;;;;;;;;;;;;;;;7.81;100.00;101796.06;5069218;29;19947;-69
2021/10/25 01:48:24;;;;;;;;;;;;;;;7.82;100.00;101797.72;5068400;29;19919;-70
2021/10/25 01:50:55;;;;;;;;;;;;;;;7.82;100.00;101792.50;5066796;29;19924;-70
2021/10/25 01:53:30;;;;;;;;;;;;;;;7.80;100.00;101790.00;5071551;29;19924;-70
2021/10/25 01:56:01;;;;;;;;;;;;;;;7.83;100.00;101788.97;5064983;29;19920;-70
2021/10/25 01:58:33;;;;;;;;;;;;;;;7.87;100.00;101790.47;5074456;29;19920;-70
2021/10/25 02:01:05;;;;;;;;;;;;;;;7.90;100.00;101790.28;5069077;29;19923;-70
2021/10/25 02:03:36;;;;;;;;;;;;;;;7.92;100.00;101791.06;5074558;29;19967;-72
2021/10/25 02:06:07;;;;;;;;;;;;;;;7.96;100.00;101784.72;5072260;29;20037;-70
2021/10/25 02:08:39;;;;;;;;;;;;;;;7.99;100.00;101787.16;5074856;29;19916;-71
2021/10/25 02:11:10;;;;;;;;;;;;;;;8.00;100.00;101781.00;5075494;29;19919;-70
2021/10/25 02:13:41;;;;;;;;;;;;;;;8.03;100.00;101786.03;5074444;29;20293;-71
2021/10/25 02:16:13;;;;;;;;;;;;;;;8.07;100.00;101771.03;5074099;29;19922;-72
2021/10/25 02:18:44;;;;;;;;;;;;;;;8.13;100.00;101770.66;5070465;29;19923;-71
2021/10/25 02:21:16;;;;;;;;;;;;;;;8.17;100.00;101768.72;5074946;29;19924;-70
2021/10/25 02:23:47;;;;;;;;;;;;;;;8.18;100.00;101768.63;5074451;29;19928;-72
2021/10/25 02:26:18;;;;;;;;;;;;;;;8.20;100.00;101771.16;5074996;29;20177;-70
2021/10/25 02:28:50;;;;;;;;;;;;;;;8.23;100.00;101766.59;5075010;29;19927;-71
2021/10/25 02:31:21;;;;;;;;;;;;;;;8.24;100.00;101763.03;5074653;29;20042;-72
2021/10/25 02:33:52;;;;;;;;;;;;;;;8.28;100.00;101761.91;5073672;29;19961;-71
2021/10/25 02:36:23;;;;;;;;;;;;;;;8.34;100.00;101763.31;5073211;29;19920;-70
2021/10/25 02:38:54;;;;;;;;;;;;;;;8.35;100.00;101751.94;5074060;29;19919;-70
2021/10/25 02:41:27;;;;;;;;;;;;;;;8.37;100.00;101744.91;5075436;29;19966;-70
2021/10/25 02:43:58;;;;;;;;;;;;;;;8.40;100.00;101738.63;5071938;29;19999;-70
2021/10/25 02:46:29;;;;;;;;;;;;;;;8.42;100.00;101742.00;5073460;29;19927;-70
2021/10/25 02:49:00;;;;;;;;;;;;;;;8.44;100.00;101737.50;5072815;29;19930;-71
2021/10/25 02:51:32;;;;;;;;;;;;;;;8.50;100.00;101737.97;5074658;29;19920;-70
2021/10/25 02:54:03;;;;;;;;;;;;;;;8.49;100.00;101736.31;5073123;29;20401;-70
2021/10/25 02:56:34;;;;;;;;;;;;;;;8.55;100.00;101736.84;5074675;29;20289;-70
2021/10/25 02:59:09;;;;;;;;;;;;;;;8.59;100.00;101738.34;5073332;29;20351;-71
2021/10/25 03:01:40;;;;;;;;;;;;;;;8.61;100.00;101731.25;5070897;29;19931;-70
2021/10/25 03:04:12;;;;;;;;;;;;;;;8.64;100.00;101731.91;5074487;29;19920;-70
2021/10/25 03:06:44;;;;;;;;;;;;;;;8.68;100.00;101729.94;5074160;29;19942;-69
2021/10/25 03:09:15;;;;;;;;;;;;;;;8.68;100.00;101735.16;5074792;29;19927;-70
2021/10/25 03:11:46;;;;;;;;;;;;;;;8.74;100.00;101732.16;5073123;29;19926;-70
2021/10/25 03:14:17;;;;;;;;;;;;;;;8.76;100.00;101720.69;5072370;29;19915;-72
2021/10/25 03:16:49;;;;;;;;;;;;;;;8.81;100.00;101730.84;5075455;29;19927;-70
2021/10/25 03:19:21;;;;;;;;;;;;;;;8.82;100.00;101727.28;5072332;29;19938;-70
2021/10/25 03:21:53;;;;;;;;;;;;;;;8.89;100.00;101723.34;5075012;29;20413;-70
2021/10/25 03:24:24;;;;;;;;;;;;;;;8.94;100.00;101726.53;5071391;29;19924;-70
2021/10/25 03:26:55;;;;;;;;;;;;;;;8.99;100.00;101723.59;5074395;29;19923;-71
2021/10/25 03:29:26;;;;;;;;;;;;;;;9.01;100.00;101721.72;5072319;29;19927;-71
2021/10/25 03:31:59;;;;;;;;;;;;;;;9.05;100.00;101727.59;5074183;29;19930;-70
2021/10/25 03:34:30;;;;;;;;;;;;;;;9.08;100.00;101728.22;5072434;29;20010;-70
2021/10/25 03:37:02;;;;;;;;;;;;;;;9.14;100.00;101720.00;5073927;29;20006;-70
2021/10/25 03:39:36;;;;;;;;;;;;;;;9.17;100.00;101718.97;5073940;29;20342;-70
2021/10/25 03:42:15;;;;;;;;;;;;;;;9.18;100.00;101712.81;5074429;29;19931;-71
2021/10/25 03:44:50;;;;;;;;;;;;;;;9.21;100.00;101710.00;5070934;29;19924;-70
2021/10/25 03:47:29;;;;;;;;;;;;;;;9.22;100.00;101707.28;5073545;29;20293;-70
2021/10/25 03:50:23;;;;;;;;;;;;;;;9.27;100.00;101701.72;5073253;29;19948;-70
2021/10/25 04:26:13;;;;;;;;;;;;;;;9.65;100.00;101708.81;5073486;29;20301;-72
2021/10/25 04:28:44;;;;;;;;;;;;;;;9.65;100.00;101712.25;5070822;29;19935;-70
2021/10/25 04:31:16;;;;;;;;;;;;;;;9.63;100.00;101715.94;5072169;29;19919;-70
2021/10/25 04:33:47;;;;;;;;;;;;;;;9.65;100.00;101714.88;5071772;29;20002;-71
2021/10/25 04:36:18;;;;;;;;;;;;;;;9.68;100.00;101711.22;5072117;29;19919;-70
2021/10/25 04:38:49;;;;;;;;;;;;;;;9.69;100.00;101710.28;5071993;29;19923;-72
2021/10/25 04:41:20;;;;;;;;;;;;;;;9.71;100.00;101708.41;5071061;29;19955;-71
2021/10/25 04:43:52;;;;;;;;;;;;;;;9.72;100.00;101705.69;5069090;29;19931;-71
2021/10/25 04:46:23;;;;;;;;;;;;;;;9.72;100.00;101707.47;5072629;29;19919;-72
2021/10/25 04:48:55;;;;;;;;;;;;;;;9.73;100.00;101709.13;5071535;29;19915;-70
2021/10/25 04:51:28;;;;;;;;;;;;;;;9.74;100.00;101716.06;5071316;29;19924;-70
2021/10/25 04:54:00;;;;;;;;;;;;;;;9.79;100.00;101710.50;5070725;29;19915;-70
2021/10/25 04:56:31;;;;;;;;;;;;;;;9.78;100.00;101714.91;5071835;29;19942;-72
2021/10/25 04:59:02;;;;;;;;;;;;;;;9.73;100.00;101709.13;5072571;29;20337;-71
2021/10/25 05:01:33;;;;;;;;;;;;;;;9.70;100.00;101707.59;5070868;29;19916;-71
2021/10/25 05:04:04;;;;;;;;;;;;;;;9.71;100.00;101700.56;5072689;29;19924;-71
2021/10/25 05:06:36;;;;;;;;;;;;;;;9.68;100.00;101698.16;5070856;29;19920;-70
2021/10/25 05:09:07;;;;;;;;;;;;;;;9.72;100.00;101697.00;5072231;29;19926;-70
2021/10/25 05:11:38;;;;;;;;;;;;;;;9.72;100.00;101697.00;5070163;29;19916;-71
2021/10/25 05:14:09;;;;;;;;;;;;;;;9.75;100.00;101702.03;5072695;29;20278;-70
2021/10/25 05:16:42;;;;;;;;;;;;;;;9.71;100.00;101690.94;5072010;29;19916;-70
2021/10/25 05:19:13;;;;;;;;;;;;;;;9.80;100.00;101696.47;5071080;29;19930;-71
2021/10/25 05:21:44;;;;;;;;;;;;;;;9.81;100.00;101685.94;5072036;29;20306;-71
2021/10/25 05:24:16;;;;;;;;;;;;;;;9.82;100.00;101684.13;5071435;29;19923;-71
2021/10/25 05:26:47;;;;;;;;;;;;;;;9.83;100.00;101684.03;5070108;29;19962;-70
2021/10/25 05:29:18;;;;;;;;;;;;;;;9.81;100.00;101685.94;5071499;29;19923;-71
2021/10/25 05:31:50;;;;;;;;;;;;;;;9.85;100.00;101683.91;5070911;29;19943;-71
2021/10/25 05:34:21;;;;;;;;;;;;;;;9.87;100.00;101684.66;5072693;29;19922;-70
2021/10/25 05:36:52;;;;;;;;;;;;;;;9.86;100.00;101685.59;5068704;29;19961;-71
2021/10/25 05:39:24;;;;;;;;;;;;;;;9.87;100.00;101682.88;5071801;29;19970;-70
2021/10/25 05:41:55;;;;;;;;;;;;;;;9.85;100.00;101684.78;5071560;29;19996;-73
2021/10/25 05:44:26;;;;;;;;;;;;;;;9.87;100.00;101679.41;5070296;29;20374;-70
2021/10/25 05:46:59;;;;;;;;;;;;;;;9.88;100.00;101668.00;5070861;29;19926;-70
2021/10/25 05:49:30;;;;;;;;;;;;;;;9.88;100.00;101671.44;5071308;29;19923;-73
2021/10/25 05:52:02;;;;;;;;;;;;;;;9.89;100.00;101667.06;5063619;29;19916;-70
2021/10/25 05:54:34;;;;;;;;;;;;;;;9.90;100.00;101663.50;5067864;29;19927;-70
2021/10/25 05:57:05;;;;;;;;;;;;;;;9.91;100.00;101671.25;5070566;29;20007;-70
2021/10/25 05:59:37;;;;;;;;;;;;;;;9.89;100.00;101667.06;5072482;29;20063;-72
2021/10/25 06:02:23;;;;;;;;;;;;;;;9.90;100.00;101666.13;5069580;29;19931;-71
2021/10/25 06:04:54;;;;;;;;;;;;;;;9.91;100.00;101667.78;5070070;29;19959;-70
2021/10/25 06:07:25;;;;;;;;;;;;;;;9.90;100.00;101664.34;5071990;29;19962;-70
2021/10/25 06:09:57;;;;;;;;;;;;;;;9.92;100.00;101666.84;5067381;29;19923;-70
2021/10/25 06:12:37;;;;;;;;;;;;;;;9.93;100.00;101664.13;5071360;29;19916;-70
2021/10/25 06:15:16;;;;;;;;;;;;;;;9.94;100.00;101665.81;5069387;29;19923;-73
2021/10/25 06:17:52;;;;;;;;;;;;;;;9.96;100.00;101669.16;5068893;29;19942;-72
2021/10/25 06:20:28;;;;;;;;;;;;;;;9.96;100.00;101663.94;5066985;29;19920;-71
2021/10/25 06:23:06;;;;;;;;;;;;;;;9.99;100.00;101666.31;5070095;29;19918;-69
2021/10/25 06:25:38;;;;;;;;;;;;;;;10.02;100.00;101667.91;5069349;29;19928;-73
2021/10/25 06:28:09;;;;;;;;;;;;;;;10.02;100.00;101673.13;5063500;29;19986;-73
2021/10/25 06:30:41;;;;;;;;;;;;;;;10.00;100.00;101680.25;5063620;29;20366;-70
2021/10/25 06:33:15;;;;;;;;;;;;;;;10.03;100.00;101681.81;5068850;29;20290;-71
2021/10/25 06:35:50;;;;;;;;;;;;;;;10.05;100.00;101683.41;5059333;29;19922;-70
2021/10/25 06:38:24;;;;;;;;;;;;;;;10.14;100.00;101681.91;5059149;29;19920;-72
2021/10/25 06:40:55;;;;;;;;;;;;;;;10.15;100.00;101679.19;5064057;29;20281;-70
2021/10/25 06:43:27;;;;;;;;;;;;;;;10.17;100.00;101681.69;5071327;29;19925;-72
2021/10/25 06:45:58;;;;;;;;;;;;;;;10.24;100.00;101688.19;5073851;29;19923;-73
2021/10/25 06:48:31;;;;;;;;;;;;;;;10.26;100.00;101688.94;5072323;29;19920;-70
2021/10/25 06:51:02;;;;;;;;;;;;;;;10.32;100.00;101695.53;5072340;29;19916;-73
2021/10/25 06:53:33;;;;;;;;;;;;;;;10.37;100.00;101685.56;5072502;29;19926;-72
2021/10/25 06:56:05;;;;;;;;;;;;;;;10.41;100.00;101684.41;5068915;29;19923;-70
2021/10/25 06:58:36;;;;;;;;;;;;;;;10.43;100.00;101678.13;5070390;29;19970;-70
2021/10/25 07:01:09;;;;;;;;;;;;;;;10.48;100.00;101672.56;5061651;29;20019;-72
2021/10/25 07:03:40;;;;;;;;;;;;;;;10.52;100.00;101679.25;5063447;29;19993;-70
2021/10/25 07:06:15;;;;;;;;;;;;;;;10.55;100.00;101683.44;5064383;29;20363;-70
2021/10/25 07:08:49;;;;;;;;;;;;;;;10.60;100.00;101690.00;5068722;29;19924;-70
2021/10/25 07:11:20;;;;;;;;;;;;;;;10.63;100.00;101686.34;5066026;29;19926;-72
2021/10/25 07:13:52;;;;;;;;;;;;;;;10.64;100.00;101686.22;5064539;29;19976;-70
2021/10/25 07:16:36;;;;;;;;;;;;;;;10.69;100.00;101685.91;5064453;29;19971;-70
2021/10/25 07:19:36;;;;;;;;;;;;;;;10.64;100.00;101674.91;5058649;29;20365;-70
2021/10/25 07:22:31;;;;;;;;;;;;;;;10.77;100.00;101695.84;5060771;29;20338;-71
2021/10/25 07:28:05;;;;;;;;;;;;;;;10.86;100.00;101689.94;5067147;29;19912;-71
2021/10/25 08:07:35;;;;;;;;;;;;;;;11.40;100.00;101713.91;5075206;29;20382;-69
2021/10/25 08:10:20;;;;;;;;;;;;;;;11.41;100.00;101712.13;5066905;29;19919;-70
2021/10/25 08:12:55;;;;;;;;;;;;;;;11.47;100.00;101711.63;5073669;29;19916;-70
2021/10/25 08:15:33;;;;;;;;;;;;;;;11.47;100.00;101711.63;5075970;29;19924;-69
2021/10/25 08:18:09;;;;;;;;;;;;;;;11.48;100.00;101708.09;5074524;29;19926;-70
2021/10/25 08:20:40;;;;;;;;;;;;;;;11.48;100.00;101712.47;5070991;29;20315;-71
2021/10/25 08:23:11;;;;;;;;;;;;;;;11.52;100.00;101711.31;5071719;29;19927;-70
2021/10/25 08:25:42;;;;;;;;;;;;;;;11.52;100.00;101713.94;5072595;29;19920;-69
2021/10/25 08:28:13;;;;;;;;;;;;;;;11.52;100.00;101714.78;5069973;29;19919;-69
2021/10/25 08:30:45;;;;;;;;;;;;;;;11.49;100.00;101706.28;5073271;29;20015;-70
2021/10/25 08:33:43;;;;;;;;;;;;;;;11.57;100.00;101706.53;5074269;29;20385;-71
2021/10/25 08:36:22;;;;;;;;;;;;;;;11.61;100.00;101702.75;5071622;29;19931;-69
2021/10/25 08:41:44;;;;;;;;;;;;;;;11.70;100.00;101712.53;5072894;29;20017;-70
2021/10/25 08:44:16;;;;;;;;;;;;;;;11.72;100.00;101702.75;5071965;29;19919;-70
2021/10/25 08:46:53;;;;;;;;;;;;;;;11.72;100.00;101702.75;5072005;29;19927;-70
2021/10/25 08:49:25;;;;;;;;;;;;;;;11.78;100.00;101704.94;5062721;29;19952;-70
2021/10/25 08:51:56;;;;;;;;;;;;;;;11.80;100.00;101703.00;5072005;29;20452;-71
2021/10/25 08:54:27;;;;;;;;;;;;;;;11.83;100.00;101700.19;5072375;29;19920;-71
2021/10/25 08:56:59;;;;;;;;;;;;;;;11.81;100.00;101694.16;5068580;29;20023;-72
2021/10/25 08:59:31;;;;;;;;;;;;;;;11.85;100.00;101694.81;5073889;29;20461;-71
2021/10/25 09:02:03;;;;;;;;;;;;;;;11.90;100.00;101701.41;5071882;29;19919;-70
2021/10/25 09:04:35;;;;;;;;;;;;;;;11.95;100.00;101698.41;5068671;29;20284;-71
2021/10/25 09:07:06;;;;;;;;;;;;;;;11.86;100.00;101697.34;5060168;29;19931;-71
2021/10/25 09:09:43;;;;;;;;;;;;;;;11.98;100.00;101699.97;5068225;29;19919;-71
2021/10/25 09:12:15;;;;;;;;;;;;;;;12.09;100.00;101694.72;5063053;29;19930;-71
2021/10/25 09:14:47;;;;;;;;;;;;;;;12.14;100.00;101695.19;5063599;29;19935;-71
2021/10/25 09:17:18;;;;;;;;;;;;;;;12.17;100.00;101695.78;5071365;29;20421;-71
2021/10/25 09:19:50;;;;;;;;;;;;;;;12.23;100.00;101693.63;5069687;29;19927;-71
2021/10/25 09:22:21;;;;;;;;;;;;;;;12.28;100.00;101692.34;5071621;29;19915;-71
2021/10/25 09:24:54;;;;;;;;;;;;;;;12.28;100.00;101699.38;5070018;29;19981;-70
2021/10/25 09:27:27;;;;;;;;;;;;;;;12.31;100.00;101694.72;5069867;29;19915;-71
2021/10/25 09:30:05;;;;;;;;;;;;;;;12.45;100.00;101687.53;5069290;29;19926;-70
2021/10/25 09:32:39;;;;;;;;;;;;;;;12.53;100.00;101693.00;5069940;29;19920;-71
2021/10/25 09:35:24;;;;;;;;;;;;;;;12.61;100.00;101693.22;5069549;29;19924;-71
2021/10/25 09:38:03;;;;;;;;;;;;;;;12.68;100.00;101693.59;5069331;29;19963;-71
2021/10/25 09:41:13;;;;;;;;;;;;;;;12.75;100.00;101689.50;5069395;29;20576;-71
2021/10/25 09:49:24;;;;;;;;;;;;;;;13.00;100.00;101685.72;5070179;29;19940;-71
2021/10/25 09:51:56;;;;;;;;;;;;;;;13.08;100.00;101681.50;5063994;29;19955;-71
2021/10/25 09:54:28;;;;;;;;;;;;;;;13.13;100.00;101683.75;5070843;29;20018;-72
2021/10/25 09:57:22;;;;;;;;;;;;;;;13.15;100.00;101687.09;5068546;29;19926;-71
2021/10/25 09:59:57;;;;;;;;;;;;;;;13.25;100.00;101677.50;5066076;29;19966;-71
2021/10/25 10:02:30;;;;;;;;;;;;;;;13.36;100.00;101684.50;5069459;29;20267;-71
2021/10/25 10:05:05;;;;;;;;;;;;;;;13.45;100.00;101675.00;5070480;29;20275;-70
2021/10/25 10:07:36;;;;;;;;;;;;;;;13.53;100.00;101683.13;5070629;29;19930;-71
2021/10/25 10:10:11;;;;;;;;;;;;;;;13.58;100.00;101680.94;5069361;29;19915;-71
2021/10/25 10:12:43;;;;;;;;;;;;;;;13.63;100.00;101678.72;5069907;29;19920;-71
2021/10/25 10:15:14;;;;;;;;;;;;;;;13.66;100.00;101682.91;5069153;29;19916;-71
2021/10/25 10:17:46;;;;;;;;;;;;;;;13.80;100.00;101678.16;5073584;29;20588;-71
2021/10/25 10:20:25;;;;;;;;;;;;;;;13.85;100.00;101683.00;5069081;29;20019;-71
2021/10/25 10:22:58;;;;;;;;;;;;;;;13.75;100.00;101675.09;5073547;29;19919;-70
2021/10/25 10:25:31;;;;;;;;;;;;;;;13.80;100.00;101674.69;5073472;29;19915;-70
2021/10/25 10:28:03;;;;;;;;;;;;;;;13.77;100.00;101681.03;5073217;29;20378;-71
2021/10/25 10:30:48;;;;;;;;;;;;;;;13.79;100.00;101675.66;5070123;29;19924;-70
2021/10/25 10:33:30;;;;;;;;;;;;;;;13.82;100.00;101686.72;5070614;29;19928;-71
2021/10/25 10:36:08;;;;;;;;;;;;;;;13.84;100.00;101681.34;5076030;29;19943;-70
2021/10/25 10:38:58;;;;;;;;;;;;;;;13.90;100.00;101680.81;5069193;29;19929;-71
2021/10/25 10:41:36;;;;;;;;;;;;;;;13.90;100.00;101683.44;5069877;29;19920;-72
2021/10/25 10:44:11;;;;;;;;;;;;;;;13.95;100.00;101685.72;5074075;29;19935;-71
2021/10/25 10:46:52;;;;;;;;;;;;;;;13.94;100.00;101684.88;5069268;29;19950;-71
2021/10/25 10:49:35;;;;;;;;;;;;;;;14.06;100.00;101681.19;5071498;29;19964;-71
2021/10/25 10:52:53;;;;;;;;;;;;;;;14.20;100.00;101677.34;5075495;29;19927;-69
2021/10/25 10:55:10;;;;;;;;;;;;;;;14.28;100.00;101676.66;5074556;29;19948;-71
2021/10/25 11:00:30;;;;;;;;;;;;;;;14.39;100.00;101673.94;5072211;29;20389;-73
2021/10/25 11:03:04;;;;;;;;;;;;;;;14.47;100.00;101676.75;5069064;29;20028;-71
2021/10/25 11:05:37;;;;;;;;;;;;;;;14.58;100.00;101675.81;5072545;29;19959;-71
2021/10/25 11:08:09;;;;;;;;;;;;;;;14.53;100.00;101673.59;5069468;29;19926;-71
2021/10/25 11:10:42;;;;;;;;;;;;;;;14.62;100.00;101668.47;5072123;29;19927;-70
2021/10/25 11:13:16;;;;;;;;;;;;;;;14.74;100.00;101662.94;5071135;29;19920;-71
2021/10/25 11:16:13;;;;;;;;;;;;;;;14.71;100.00;101662.38;5074367;29;20298;-71
2021/10/25 11:18:47;;;;;;;;;;;;;;;14.78;100.00;101664.34;5078604;29;19962;-72
2021/10/25 11:21:21;;;;;;;;;;;;;;;14.83;100.00;101659.47;5077120;29;19923;-72
2021/10/25 11:23:55;;;;;;;;;;;;;;;14.86;100.00;101662.81;5076574;29;19923;-71
2021/10/25 11:26:32;;;;;;;;;;;;;;;14.88;100.00;101660.84;5078484;29;19920;-71
2021/10/25 11:29:11;;;;;;;;;;;;;;;14.86;100.00;101654.91;5076304;29;20438;-72
2021/10/25 11:31:42;;;;;;;;;;;;;;;14.89;100.00;101654.59;5074899;29;19923;-70
2021/10/25 11:34:20;;;;;;;;;;;;;;;14.93;100.00;101654.22;5077280;29;19920;-70
2021/10/25 11:37:16;;;;;;;;;;;;;;;14.95;100.00;101651.41;5075613;29;19924;-71
2021/10/25 11:39:55;;;;;;;;;;;;;;;14.90;100.00;101659.75;5077408;29;19924;-71
2021/10/25 11:42:46;;;;;;;;;;;;;;;14.91;100.00;101650.88;5076968;29;19989;-72
2021/10/25 11:45:20;;;;;;;;;;;;;;;15.01;100.00;101651.72;5076395;29;20014;-71
2021/10/25 11:47:51;;;;;;;;;;;;;;;15.04;100.00;101648.78;5079253;29;20657;-71
2021/10/25 11:50:24;;;;;;;;;;;;;;;15.14;100.00;101640.84;5078305;29;19919;-71
2021/10/25 11:53:00;;;;;;;;;;;;;;;15.29;100.00;101630.69;5075321;29;19923;-71
2021/10/25 11:55:38;;;;;;;;;;;;;;;15.34;100.00;101625.81;5078976;29;19919;-71
2021/10/25 11:58:12;;;;;;;;;;;;;;;15.35;100.00;101619.59;5076894;29;19959;-72
2021/10/25 12:00:47;;;;;;;;;;;;;;;15.37;100.00;101622.91;5078336;29;19975;-71
2021/10/25 12:03:21;;;;;;;;;;;;;;;15.41;100.00;101626.91;5075989;29;19986;-72
2021/10/25 12:05:52;;;;;;;;;;;;;;;15.41;100.00;101628.72;5079261;29;19963;-71
2021/10/25 12:08:23;;;;;;;;;;;;;;;15.42;100.00;101627.75;5077012;29;19962;-72
2021/10/25 12:10:56;;;;;;;;;;;;;;;15.47;100.00;101620.25;5075550;29;20535;-72
2021/10/25 12:13:27;;;;;;;;;;;;;;;15.64;100.00;101619.47;5077186;29;19932;-72
2021/10/25 12:16:02;;;;;;;;;;;;;;;15.65;100.00;101615.91;5076013;29;19998;-70
2021/10/25 12:18:33;;;;;;;;;;;;;;;15.67;100.00;101623.69;5076343;29;19983;-72
2021/10/25 12:21:11;;;;;;;;;;;;;;;15.72;100.00;101632.84;5073849;29;20362;-72
2021/10/25 12:23:51;;;;;;;;;;;;;;;15.71;100.00;101631.16;5077428;29;19923;-71
2021/10/25 12:26:22;;;;;;;;;;;;;;;15.64;100.00;101619.47;5073069;29;19927;-71
2021/10/25 12:28:53;;;;;;;;;;;;;;;15.67;100.00;101618.41;5073027;29;19915;-72
2021/10/25 12:31:26;;;;;;;;;;;;;;;15.67;100.00;101606.03;5075573;29;20297;-72
2021/10/25 12:34:01;;;;;;;;;;;;;;;15.70;100.00;101611.03;5075416;29;20356;-70
2021/10/25 12:36:37;;;;;;;;;;;;;;;15.72;100.00;101611.72;5074906;29;20009;-71
2021/10/25 12:39:10;;;;;;;;;;;;;;;15.70;100.00;101618.13;5076222;29;20433;-72
2021/10/25 12:41:45;;;;;;;;;;;;;;;15.74;100.00;101615.03;5068998;29;19920;-71
2021/10/25 12:44:33;;;;;;;;;;;;;;;15.80;100.00;101619.75;5073216;29;21309;-70
2021/10/25 12:47:08;;;;;;;;;;;;;;;15.88;100.00;101608.44;5073767;29;20294;-72
2021/10/25 12:49:44;;;;;;;;;;;;;;;15.94;100.00;101612.31;5076002;29;19971;-70
2021/10/25 12:52:17;;;;;;;;;;;;;;;15.95;100.00;101609.53;5073475;29;19923;-71
2021/10/25 12:54:48;;;;;;;;;;;;;;;16.06;100.00;101613.78;5077874;29;19931;-71
2021/10/25 12:57:19;;;;;;;;;;;;;;;16.14;100.00;101605.09;5074558;29;19919;-72
2021/10/25 13:00:07;;;;;;;;;;;;;;;16.27;100.00;101616.19;5077873;29;19920;-71
2021/10/25 13:02:43;;;;;;;;;;;;;;;16.37;100.00;101618.78;5077552;29;20362;-71
2021/10/25 13:05:16;;;;;;;;;;;;;;;16.36;100.00;101614.44;5076969;29;19995;-72
2021/10/25 13:07:55;;;;;;;;;;;;;;;16.35;100.00;101607.50;5074998;29;20019;-70
2021/10/25 13:10:27;;;;;;;;;;;;;;;16.32;100.00;101610.44;5076065;29;19987;-72
2021/10/25 13:13:00;;;;;;;;;;;;;;;16.27;100.00;101613.53;5077137;29;20018;-72
2021/10/25 13:15:31;;;;;;;;;;;;;;;16.27;100.00;101606.44;5074258;29;19911;-70
2021/10/25 13:18:03;;;;;;;;;;;;;;;16.19;100.00;101603.69;5074908;29;20421;-70
2021/10/25 13:20:36;;;;;;;;;;;;;;;16.25;100.00;101603.13;5072837;29;19923;-71
2021/10/25 13:23:08;;;;;;;;;;;;;;;16.28;100.00;101597.50;5077192;29;19931;-72
2021/10/25 13:25:41;;;;;;;;;;;;;;;16.29;100.00;101593.91;5074371;29;19996;-72
2021/10/25 13:28:12;;;;;;;;;;;;;;;16.26;100.00;101601.28;5078454;29;20369;-70
2021/10/25 13:30:44;;;;;;;;;;;;;;;16.10;100.00;101594.03;5072248;29;20010;-72
2021/10/25 13:33:15;;;;;;;;;;;;;;;16.03;100.00;101592.94;5074439;29;20378;-72
2021/10/25 13:35:46;;;;;;;;;;;;;;;15.99;100.00;101591.56;5075995;29;19931;-72
2021/10/25 13:38:18;;;;;;;;;;;;;;;16.03;100.00;101588.47;5077454;29;19916;-72
2021/10/25 13:40:49;;;;;;;;;;;;;;;16.07;100.00;101588.19;5076776;29;19939;-70
2021/10/25 13:43:21;;;;;;;;;;;;;;;16.07;100.00;101591.66;5076828;29;19942;-71
2021/10/25 13:45:52;;;;;;;;;;;;;;;16.09;100.00;101592.34;5074303;29;20382;-72
2021/10/25 13:48:23;;;;;;;;;;;;;;;16.15;100.00;101596.22;5075274;29;19925;-72
2021/10/25 13:50:55;;;;;;;;;;;;;;;16.14;100.00;101590.09;5066008;29;19919;-72
2021/10/25 13:53:29;;;;;;;;;;;;;;;16.15;100.00;101589.09;5067201;29;19934;-72
2021/10/25 13:56:00;;;;;;;;;;;;;;;16.10;100.00;101591.38;5068720;29;19919;-71
2021/10/25 13:58:31;;;;;;;;;;;;;;;16.03;100.00;101585.00;5068305;29;19920;-71
2021/10/25 14:01:03;;;;;;;;;;;;;;;15.98;100.00;101585.44;5069396;29;20369;-71
2021/10/25 14:03:36;;;;;;;;;;;;;;;15.97;100.00;101590.88;5062278;29;19945;-71
2021/10/25 14:06:10;;;;;;;;;;;;;;;16.00;100.00;101582.66;5067828;29;20008;-71
2021/10/25 14:08:43;;;;;;;;;;;;;;;16.04;100.00;101584.03;5070680;29;19919;-72
2021/10/25 14:11:14;;;;;;;;;;;;;;;16.03;100.00;101580.56;5068645;29;19926;-72
2021/10/25 14:18:50;;;;;;;;;;;;;;;15.93;100.00;101577.13;5069823;29;19932;-73
2021/10/25 14:21:22;;;;;;;;;;;;;;;15.94;100.00;101584.06;5068606;29;20377;-72
2021/10/25 14:23:53;;;;;;;;;;;;;;;15.97;100.00;101572.38;5069554;29;20025;-72
2021/10/25 14:26:24;;;;;;;;;;;;;;;15.99;100.00;101573.06;5069657;29;19918;-72
2021/10/25 14:28:56;;;;;;;;;;;;;;;15.96;100.00;101566.25;5067615;29;19965;-72
2021/10/25 14:31:27;;;;;;;;;;;;;;;15.96;100.00;101568.09;5068588;29;19923;-71
2021/10/25 14:33:59;;;;;;;;;;;;;;;15.90;100.00;101566.84;5069882;29;19916;-71